createdAt,value
2022-08-05T00:02:19.437Z,28.47
2022-08-05T00:07:59.034Z,28.42
2022-08-05T00:12:48.528Z,28.39
2022-08-05T00:17:59.102Z,28.32
2022-08-05T00:23:12.872Z,28.23
2022-08-05T00:28:21.145Z,28.16
2022-08-05T00:34:56.799Z,28.11
2022-08-05T00:38:55.218Z,28.12
2022-08-05T00:44:09.560Z,28.12
2022-08-05T00:49:14.019Z,28.15
2022-08-05T00:54:16.779Z,28.17
2022-08-05T00:59:19.239Z,28.14
2022-08-05T01:04:26.612Z,28.07
2022-08-05T01:09:35.591Z,28.00
2022-08-05T01:14:59.740Z,27.95
2022-08-05T01:22:15.441Z,27.91
2022-08-05T01:27:28.055Z,27.92
2022-08-05T01:32:39.141Z,27.94
2022-08-05T01:37:54.595Z,27.91
2022-08-05T01:42:59.154Z,27.92
2022-08-05T01:48:03.329Z,27.92
2022-08-05T01:53:16.037Z,27.93
2022-08-05T01:58:45.374Z,27.91
2022-08-05T02:03:57.121Z,27.89
2022-08-05T02:09:00.503Z,27.87
2022-08-05T02:14:16.995Z,27.75
2022-08-05T02:19:28.210Z,27.62
2022-08-05T02:24:39.350Z,27.49
2022-08-05T02:29:58.564Z,27.43
2022-08-05T02:35:14.536Z,27.36
2022-08-05T02:40:27.808Z,27.29
2022-08-05T02:45:52.366Z,27.25
2022-08-05T02:50:53.482Z,27.23
2022-08-05T02:56:02.110Z,27.22
2022-08-05T03:07:07.220Z,27.17
2022-08-05T03:12:51.754Z,27.13
2022-08-05T03:18:07.764Z,27.13
2022-08-05T03:23:15.271Z,27.09
2022-08-05T03:28:35.287Z,27.04
2022-08-05T03:33:53.147Z,26.96
2022-08-05T03:39:12.998Z,26.91
2022-08-05T03:44:37.249Z,26.86
2022-08-05T03:49:51.858Z,26.81
2022-08-05T03:56:06.286Z,26.79
2022-08-05T04:00:57.295Z,26.79
2022-08-05T04:06:13.427Z,26.82
2022-08-05T04:11:19.024Z,26.83
2022-08-05T04:16:32.556Z,26.84
2022-08-05T04:22:10.163Z,26.85
2022-08-05T04:27:09.787Z,26.85
2022-08-05T04:32:33.245Z,26.82
2022-08-05T04:38:02.710Z,26.80
2022-08-05T04:43:16.805Z,26.78
2022-08-05T04:48:27.706Z,26.77
2022-08-05T04:58:49.846Z,26.73
2022-08-05T05:04:03.705Z,26.69
2022-08-05T05:09:17.657Z,26.65
2022-08-05T05:14:31.942Z,26.65
2022-08-05T05:19:47.315Z,26.70
2022-08-05T05:25:01.310Z,26.73
2022-08-05T05:30:29.466Z,26.76
2022-08-05T05:35:42.567Z,26.80
2022-08-05T05:40:51.424Z,26.83
2022-08-05T05:46:13.668Z,26.87
2022-08-05T05:51:27.804Z,26.90
2022-08-05T05:56:44.308Z,26.92
2022-08-05T06:01:57.639Z,26.96
2022-08-05T06:07:01.591Z,27.01
2022-08-05T06:12:09.847Z,27.05
2022-08-05T06:17:22.215Z,27.12
2022-08-05T06:22:36.889Z,27.18
2022-08-05T06:28:10.719Z,27.26
2022-08-05T06:33:19.430Z,27.33
2022-08-05T06:38:35.593Z,27.42
2022-08-05T06:43:58.622Z,27.50
2022-08-05T06:49:16.141Z,27.59
2022-08-05T06:54:31.354Z,27.74
2022-08-05T06:59:38.776Z,27.94
2022-08-05T07:04:47.935Z,28.22
2022-08-05T07:09:58.196Z,28.53
2022-08-05T07:20:50.581Z,29.39
2022-08-05T07:26:03.160Z,29.74
2022-08-05T07:31:08.561Z,30.01
2022-08-05T07:36:25.945Z,30.25
2022-08-05T07:42:14.353Z,30.54
2022-08-05T07:47:15.519Z,30.79
2022-08-05T07:52:28.561Z,31.00
2022-08-05T07:57:58.937Z,31.21
2022-08-05T08:03:19.009Z,31.33
2022-08-05T08:08:30.188Z,31.39
2022-08-05T08:13:49.258Z,31.52
2022-08-05T08:19:02.877Z,31.63
2022-08-05T08:24:13.573Z,31.70
2022-08-05T08:30:04.231Z,31.82
2022-08-05T08:40:14.484Z,31.94
2022-08-05T08:45:44.995Z,32.05
2022-08-05T08:51:07.510Z,32.10
2022-08-05T08:56:37.049Z,32.25
2022-08-05T09:01:57.475Z,32.29
2022-08-05T09:07:19.703Z,32.40
2022-08-05T09:12:41.331Z,32.59
2022-08-05T09:17:52.946Z,32.69
2022-08-05T09:23:18.794Z,32.81
2022-08-05T09:28:33.373Z,32.73
2022-08-05T09:34:04.628Z,32.28
2022-08-05T09:39:22.176Z,32.32
2022-08-05T09:44:50.578Z,32.44
2022-08-05T09:55:58.101Z,32.60
2022-08-05T10:01:31.937Z,32.41
2022-08-05T10:06:37.206Z,32.27
2022-08-05T10:11:53.820Z,32.35
2022-08-05T10:17:37.840Z,32.30
2022-08-05T10:22:59.034Z,32.22
2022-08-05T10:28:12.926Z,32.14
2022-08-05T10:39:00.066Z,32.10
2022-08-05T10:44:15.279Z,32.13
2022-08-05T10:49:26.868Z,32.16
2022-08-05T10:55:02.638Z,32.10
2022-08-05T11:00:24.840Z,32.07
2022-08-05T11:05:37.640Z,32.07
2022-08-05T11:10:50.407Z,32.00
2022-08-05T11:16:33.706Z,31.98
2022-08-05T11:21:59.917Z,31.96
2022-08-05T11:27:37.069Z,31.88
2022-08-05T11:39:03.392Z,31.94
2022-08-05T11:44:21.612Z,31.87
2022-08-05T11:49:51.363Z,31.89
2022-08-05T11:55:07.786Z,31.94
2022-08-05T12:00:32.714Z,31.88
2022-08-05T12:05:46.261Z,31.79
2022-08-05T12:10:55.066Z,31.66
2022-08-05T12:16:15.647Z,31.67
2022-08-05T12:21:50.095Z,31.70
2022-08-05T12:26:55.081Z,31.78
2022-08-05T12:32:04.410Z,31.72
2022-08-05T12:37:21.939Z,31.65
2022-08-05T12:42:39.098Z,31.56
2022-08-05T12:48:17.107Z,31.57
2022-08-05T12:53:18.611Z,31.59
2022-08-05T12:58:52.297Z,31.58
2022-08-05T13:04:02.096Z,31.72
2022-08-05T13:09:13.868Z,31.72
2022-08-05T13:14:36.347Z,31.72
2022-08-05T13:19:52.649Z,31.65
2022-08-05T13:30:33.047Z,31.66
2022-08-05T13:35:54.716Z,31.62
2022-08-05T13:41:11.259Z,31.60
2022-08-05T13:46:35.796Z,31.51
2022-08-05T13:51:56.574Z,31.49
2022-08-05T13:57:17.288Z,31.42
2022-08-05T14:02:29.864Z,31.44
2022-08-05T14:08:00.645Z,31.48
2022-08-05T14:13:10.408Z,31.47
2022-08-05T14:18:38.370Z,31.43
2022-08-05T14:23:46.753Z,31.33
2022-08-05T14:28:52.357Z,31.29
2022-08-05T14:34:00.857Z,31.33
2022-08-05T14:39:11.061Z,31.31
2022-08-05T14:44:20.221Z,31.30
2022-08-05T14:49:58.546Z,31.35
2022-08-05T14:55:19.355Z,31.48
2022-08-05T15:00:29.340Z,31.42
2022-08-05T15:06:07.515Z,31.54
2022-08-05T15:11:04.568Z,31.42
2022-08-05T15:16:27.062Z,31.45
2022-08-05T15:21:46.044Z,31.44
2022-08-05T15:26:50.659Z,31.31
2022-08-05T15:32:02.309Z,31.32
2022-08-05T15:37:14.714Z,31.26
2022-08-05T15:42:54.665Z,30.97
2022-08-05T15:53:05.540Z,30.13
2022-08-05T15:58:16.842Z,29.76
2022-08-05T16:03:22.518Z,29.26
2022-08-05T16:08:31.799Z,28.77
2022-08-05T16:13:35.406Z,28.37
2022-08-05T16:18:52.457Z,28.06
2022-08-05T16:24:03.444Z,27.77
2022-08-05T16:29:08.439Z,27.54
2022-08-05T16:40:05.058Z,27.34
2022-08-05T16:46:05.101Z,27.19
2022-08-05T16:50:46.135Z,27.02
2022-08-05T16:56:01.335Z,26.91
2022-08-05T17:01:11.474Z,26.89
2022-08-05T17:06:18.209Z,26.81
2022-08-05T17:11:46.056Z,26.71
2022-08-05T17:16:57.016Z,26.64
2022-08-05T17:22:27.360Z,26.52
2022-08-05T17:27:33.373Z,26.42
2022-08-05T17:32:36.618Z,26.40
2022-08-05T17:38:00.417Z,26.29
2022-08-05T17:43:18.024Z,26.20
2022-08-05T17:48:59.726Z,26.13
2022-08-05T17:54:10.238Z,26.06
2022-08-05T17:59:14.967Z,26.01
2022-08-05T18:04:30.980Z,26.09
2022-08-05T18:10:10.083Z,26.11
2022-08-05T18:15:27.176Z,26.09
2022-08-05T18:20:32.745Z,26.07
2022-08-05T18:25:39.192Z,26.03
2022-08-05T18:30:54.610Z,25.99
2022-08-05T18:41:55.217Z,26.03
2022-08-05T18:47:10.589Z,26.02
2022-08-05T18:52:36.307Z,26.02
2022-08-05T18:57:53.934Z,26.07
2022-08-05T19:03:53.256Z,26.05
2022-08-05T19:08:53.045Z,25.99
2022-08-05T19:14:01.062Z,25.93
2022-08-05T19:19:24.843Z,25.97
2022-08-05T19:24:34.579Z,26.02
2022-08-05T19:29:38.264Z,26.05
2022-08-05T19:34:54.693Z,26.10
2022-08-05T19:40:02.748Z,26.12
2022-08-05T19:45:20.640Z,26.17
2022-08-05T19:50:36.653Z,26.19
2022-08-05T19:56:15.738Z,26.21
2022-08-05T20:06:59.252Z,26.25
2022-08-05T20:12:06.274Z,26.29
2022-08-05T20:17:23.458Z,26.32
2022-08-05T20:22:29.473Z,26.37
2022-08-05T20:27:41.585Z,26.40
2022-08-05T20:32:58.855Z,26.42
2022-08-05T20:38:22.603Z,26.41
2022-08-05T20:43:58.789Z,26.41
2022-08-05T20:49:02.467Z,26.44
2022-08-05T20:54:14.169Z,26.41
2022-08-05T20:59:26.865Z,26.36
2022-08-05T21:04:36.660Z,26.30
2022-08-05T21:09:54.307Z,26.23
2022-08-05T21:15:03.626Z,26.14
2022-08-05T21:20:11.907Z,26.01
2022-08-05T21:25:19.551Z,25.96
2022-08-05T21:30:29.920Z,25.93
2022-08-05T21:35:43.709Z,25.97
2022-08-05T21:41:14.447Z,25.98
2022-08-05T21:46:34.775Z,25.94
2022-08-05T21:52:22.797Z,25.92
2022-08-05T21:57:31.349Z,25.90
2022-08-05T22:02:41.823Z,25.89
2022-08-05T22:07:59.428Z,25.88
2022-08-05T22:14:18.209Z,25.88
2022-08-05T22:18:35.498Z,25.88
2022-08-05T22:24:08.819Z,25.88
2022-08-05T22:29:30.735Z,25.91
2022-08-05T22:34:41.723Z,25.95
2022-08-05T22:39:50.487Z,25.97
2022-08-05T22:44:59.138Z,26.02
2022-08-05T22:50:19.961Z,26.10
2022-08-05T22:55:37.182Z,26.18
2022-08-05T23:01:01.057Z,26.25
2022-08-05T23:06:04.972Z,26.32
2022-08-05T23:11:14.540Z,26.32
2022-08-05T23:16:25.976Z,26.32
2022-08-05T23:21:42.810Z,26.34
2022-08-05T23:26:55.305Z,26.37
2022-08-05T23:32:15.994Z,26.35
2022-08-05T23:37:23.870Z,26.30
2022-08-05T23:42:32.299Z,26.22
2022-08-05T23:47:36.555Z,26.11
2022-08-05T23:52:55.159Z,26.00
2022-08-05T23:58:03.141Z,25.90
